Time;durP1;ratioP1;P1;durP2;ratioP2;P2;SDS_P1;SDS_P2;PMS_P1;PMS_P2;Temp;Humidity;BMP_temperature;BMP_pressure;BME280_temperature;BME280_humidity;BME280_pressure;Samples;Min_cycle;Max_cycle;Signal;HPM_P1;HPM_P2
2021/03/19 00:01:24;;;;;;;1.58;1.48;;;3.50;99.90;;;;;;5081150;28;20219;-79
2021/03/19 00:03:51;;;;;;;0.93;0.93;;;3.40;99.90;;;;;;5081724;28;20213;-77
2021/03/19 00:06:17;;;;;;;1.25;0.85;;;3.40;99.90;;;;;;5080113;28;20254;-78
2021/03/19 00:08:44;;;;;;;0.50;0.40;;;3.40;99.90;;;;;;5081088;28;20690;-79
2021/03/19 00:11:10;;;;;;;2.72;2.47;;;3.40;99.90;;;;;;5081304;28;20809;-78
2021/03/19 00:13:36;;;;;;;0.50;0.40;;;3.40;99.90;;;;;;5080496;28;20196;-79
2021/03/19 00:16:04;;;;;;;0.60;0.60;;;3.30;99.90;;;;;;5080653;28;20613;-78
2021/03/19 00:18:31;;;;;;;1.50;1.40;;;3.40;99.90;;;;;;5080905;28;20238;-80
2021/03/19 00:20:57;;;;;;;1.02;1.02;;;3.30;99.90;;;;;;5082348;28;20231;-79
2021/03/19 00:23:23;;;;;;;0.50;0.50;;;3.30;99.90;;;;;;5063213;28;20284;-79
2021/03/19 00:25:50;;;;;;;0.68;0.68;;;3.30;99.90;;;;;;5060396;28;20194;-77
2021/03/19 00:28:16;;;;;;;0.50;0.40;;;3.20;99.90;;;;;;5061492;28;20599;-79
2021/03/19 00:30:44;;;;;;;1.52;1.52;;;3.20;99.90;;;;;;5062599;28;20198;-79
2021/03/19 00:33:13;;;;;;;1.00;0.98;;;3.10;99.90;;;;;;5063493;28;20217;-79
2021/03/19 00:35:40;;;;;;;0.63;0.63;;;3.10;99.90;;;;;;5063248;28;20192;-79
2021/03/19 00:38:08;;;;;;;0.57;0.57;;;3.10;99.90;;;;;;5059589;28;20319;-78
2021/03/19 00:40:36;;;;;;;2.47;2.33;;;3.00;99.90;;;;;;5061004;28;20200;-80
2021/03/19 00:43:03;;;;;;;0.50;0.40;;;2.90;99.90;;;;;;5060681;28;20275;-80
2021/03/19 00:45:29;;;;;;;0.93;0.90;;;2.90;99.90;;;;;;5056943;28;20227;-78
2021/03/19 00:47:56;;;;;;;0.50;0.50;;;2.80;99.90;;;;;;5059639;28;20216;-77
2021/03/19 00:50:27;;;;;;;3.78;3.38;;;2.80;99.90;;;;;;5061420;28;20198;-79
2021/03/19 00:52:54;;;;;;;1.23;0.60;;;2.90;99.90;;;;;;5068529;28;20224;-79
2021/03/19 00:55:21;;;;;;;0.50;0.40;;;2.90;99.90;;;;;;5072146;28;20189;-79
2021/03/19 00:57:47;;;;;;;1.35;1.27;;;2.90;99.90;;;;;;5079697;28;20206;-79
2021/03/19 01:00:16;;;;;;;11.68;5.32;;;2.90;99.90;;;;;;5080597;28;20208;-79
2021/03/19 01:02:42;;;;;;;2.70;2.60;;;3.00;99.90;;;;;;5081927;28;20303;-79
2021/03/19 01:05:12;;;;;;;2.88;2.10;;;3.00;99.90;;;;;;5080481;28;20622;-79
2021/03/19 01:07:39;;;;;;;0.50;0.40;;;2.90;99.90;;;;;;5079329;28;20196;-78
2021/03/19 01:10:08;;;;;;;0.68;0.68;;;2.90;99.90;;;;;;5080397;28;20207;-78
2021/03/19 01:12:35;;;;;;;0.50;0.50;;;2.90;99.90;;;;;;5081927;28;20212;-79
2021/03/19 01:15:01;;;;;;;1.45;1.35;;;2.80;99.90;;;;;;5080634;28;20197;-79
2021/03/19 01:17:27;;;;;;;1.67;1.58;;;2.80;99.90;;;;;;5079850;28;20220;-79
2021/03/19 01:19:54;;;;;;;0.50;0.40;;;2.70;99.90;;;;;;5080882;28;20204;-79
2021/03/19 01:22:20;;;;;;;0.82;0.82;;;2.70;99.90;;;;;;5072346;28;20231;-80
2021/03/19 01:24:47;;;;;;;0.50;0.40;;;2.60;99.90;;;;;;5065766;28;20211;-79
2021/03/19 01:27:13;;;;;;;0.50;0.40;;;2.70;99.90;;;;;;5060311;28;20883;-80
2021/03/19 01:29:40;;;;;;;1.02;1.02;;;2.70;99.90;;;;;;5059909;28;20198;-80
2021/03/19 01:32:06;;;;;;;0.50;0.40;;;2.80;99.90;;;;;;5060858;28;20217;-79
2021/03/19 01:34:32;;;;;;;1.13;1.13;;;2.70;99.90;;;;;;5060896;28;20682;-79
2021/03/19 01:36:59;;;;;;;0.73;0.73;;;2.80;99.90;;;;;;5059057;28;20205;-78
2021/03/19 01:39:25;;;;;;;0.50;0.40;;;2.80;99.90;;;;;;5059872;28;20202;-79
2021/03/19 01:41:53;;;;;;;0.50;0.40;;;2.80;99.90;;;;;;5061672;28;20246;-78
2021/03/19 01:44:19;;;;;;;0.50;0.40;;;2.70;99.90;;;;;;5064171;28;20243;-79
2021/03/19 01:47:23;;;;;;;1.13;0.80;;;2.70;99.90;;;;;;5061985;28;20206;-80
2021/03/19 01:50:29;;;;;;;0.75;0.75;;;2.80;99.90;;;;;;5065003;28;20202;-78
2021/03/19 01:53:33;;;;;;;0.75;0.75;;;2.80;99.90;;;;;;5070953;28;20255;-79
2021/03/19 01:56:36;;;;;;;1.33;1.33;;;2.80;99.90;;;;;;5045014;28;20266;-79
2021/03/19 01:59:40;;;;;;;4.53;2.53;;;2.80;99.90;;;;;;5046299;28;20196;-79
2021/03/19 02:02:44;;;;;;;0.50;0.40;;;2.70;99.90;;;;;;5046754;28;20242;-80
2021/03/19 02:05:47;;;;;;;0.82;0.82;;;2.70;99.90;;;;;;5046235;28;20221;-79
2021/03/19 02:08:51;;;;;;;0.82;0.70;;;2.60;99.90;;;;;;5045222;28;20200;-79
2021/03/19 02:11:54;;;;;;;0.50;0.40;;;2.50;99.90;;;;;;5045833;28;20254;-80
2021/03/19 02:14:58;;;;;;;1.08;1.02;;;2.30;99.90;;;;;;5046948;28;20194;-78
2021/03/19 02:18:02;;;;;;;0.70;0.70;;;2.30;99.90;;;;;;5046086;28;20194;-80
2021/03/19 02:21:17;;;;;;;0.50;0.47;;;2.20;99.90;;;;;;5049768;28;20202;-80
2021/03/19 02:24:20;;;;;;;0.50;0.45;;;2.20;99.90;;;;;;4988157;28;20703;-79
2021/03/19 02:27:24;;;;;;;0.50;0.50;;;2.10;99.90;;;;;;5046529;28;20190;-80
2021/03/19 02:30:39;;;;;;;0.85;0.85;;;2.00;99.90;;;;;;5047453;28;20199;-80
2021/03/19 02:33:06;;;;;;;0.50;0.40;;;2.00;99.90;;;;;;4967619;29;20287;-80
2021/03/19 02:35:44;;;;;;;0.50;0.40;;;1.90;99.90;;;;;;5028916;28;20239;-80
2021/03/19 02:38:10;;;;;;;0.50;0.50;;;1.80;99.90;;;;;;5047059;28;20181;-81
2021/03/19 02:40:36;;;;;;;1.70;1.30;;;1.80;99.90;;;;;;5047126;28;20286;-80
2021/03/19 02:43:03;;;;;;;0.93;0.85;;;1.80;99.90;;;;;;5047488;28;20222;-79
2021/03/19 02:45:29;;;;;;;0.50;0.40;;;1.80;99.90;;;;;;5044822;28;20225;-80
2021/03/19 02:47:55;;;;;;;0.60;0.52;;;1.80;99.90;;;;;;5046404;28;20234;-80
2021/03/19 02:50:22;;;;;;;0.80;0.65;;;1.80;99.90;;;;;;5047360;28;20201;-79
2021/03/19 02:52:49;;;;;;;22.63;4.45;;;1.90;99.90;;;;;;5055619;28;20280;-79
2021/03/19 02:55:17;;;;;;;2.45;1.80;;;1.90;99.90;;;;;;5078530;28;20188;-79
2021/03/19 02:57:43;;;;;;;1.13;1.13;;;1.90;99.90;;;;;;5085183;28;20198;-79
2021/03/19 03:00:13;;;;;;;7.43;0.98;;;2.00;99.90;;;;;;5087519;28;20276;-79
2021/03/19 03:02:39;;;;;;;3.15;2.95;;;2.00;99.90;;;;;;5087439;28;20217;-79
2021/03/19 03:05:07;;;;;;;0.70;0.70;;;2.00;99.90;;;;;;5087808;28;20219;-80
2021/03/19 03:07:34;;;;;;;0.50;0.40;;;2.00;99.90;;;;;;5085886;28;20200;-80
2021/03/19 03:10:01;;;;;;;0.60;0.60;;;2.00;99.90;;;;;;5088090;28;20204;-77
2021/03/19 03:12:28;;;;;;;1.20;0.90;;;2.10;99.90;;;;;;5088155;28;20231;-80
2021/03/19 03:14:55;;;;;;;3.58;3.13;;;2.10;99.90;;;;;;5087548;28;20201;-77
2021/03/19 03:17:21;;;;;;;1.05;0.98;;;2.20;99.90;;;;;;5086072;28;20202;-80
2021/03/19 03:19:48;;;;;;;3.28;2.97;;;2.20;99.90;;;;;;5087337;28;20204;-80
2021/03/19 03:22:14;;;;;;;25.38;23.45;;;2.10;99.90;;;;;;5079027;28;20220;-79
2021/03/19 03:24:41;;;;;;;1.35;1.25;;;2.10;99.90;;;;;;5078020;28;20205;-80
2021/03/19 03:27:08;;;;;;;3.47;3.28;;;2.20;99.90;;;;;;5085720;28;20196;-80
2021/03/19 03:29:36;;;;;;;0.70;0.70;;;2.20;99.90;;;;;;5088117;28;20196;-80
2021/03/19 03:32:03;;;;;;;0.50;0.40;;;2.20;99.90;;;;;;5085147;28;20219;-78
2021/03/19 03:34:31;;;;;;;2.03;1.92;;;2.30;99.90;;;;;;5089474;28;20200;-81
2021/03/19 03:36:57;;;;;;;5.22;1.42;;;2.40;99.90;;;;;;5090011;28;20284;-79
2021/03/19 03:39:27;;;;;;;1.77;1.48;;;2.40;99.90;;;;;;5095728;28;20284;-82
2021/03/19 03:41:55;;;;;;;0.50;0.40;;;2.40;99.90;;;;;;5089467;28;20212;-81
2021/03/19 03:44:21;;;;;;;1.40;1.30;;;2.40;99.90;;;;;;5086478;28;20220;-80
2021/03/19 03:46:48;;;;;;;0.50;0.40;;;2.40;99.90;;;;;;5084954;28;20211;-81
2021/03/19 03:49:16;;;;;;;8.10;1.73;;;2.40;99.90;;;;;;5087461;28;20204;-80
2021/03/19 03:51:44;;;;;;;0.50;0.40;;;2.30;99.90;;;;;;5095106;22;20227;-79
2021/03/19 03:54:10;;;;;;;1.45;0.90;;;2.30;99.90;;;;;;5068161;28;20568;-81
2021/03/19 03:56:37;;;;;;;0.50;0.40;;;2.30;99.90;;;;;;5076053;28;20200;-81
2021/03/19 03:59:05;;;;;;;1.25;1.25;;;2.30;99.90;;;;;;5077377;28;20237;-80
2021/03/19 04:01:32;;;;;;;0.50;0.40;;;2.20;99.90;;;;;;5078037;28;20222;-81
2021/03/19 04:03:59;;;;;;;0.50;0.40;;;2.20;99.90;;;;;;5076597;28;20222;-81
2021/03/19 04:06:25;;;;;;;1.60;1.50;;;2.10;99.90;;;;;;5075426;28;20197;-81
2021/03/19 04:08:51;;;;;;;0.50;0.40;;;2.10;99.90;;;;;;5076093;28;20199;-79
2021/03/19 04:11:20;;;;;;;0.50;0.45;;;1.90;99.90;;;;;;5076735;28;20232;-81
2021/03/19 04:13:47;;;;;;;0.60;0.50;;;1.80;99.90;;;;;;5074809;28;20735;-80
2021/03/19 04:16:15;;;;;;;0.85;0.85;;;1.80;99.90;;;;;;5074450;28;20246;-80
2021/03/19 04:18:42;;;;;;;0.50;0.40;;;1.70;99.90;;;;;;5074551;28;20268;-81
2021/03/19 04:21:10;;;;;;;0.50;0.40;;;1.70;99.90;;;;;;5076046;28;20195;-81
2021/03/19 04:23:40;;;;;;;0.50;0.43;;;1.60;99.90;;;;;;5074470;28;20219;-81
2021/03/19 04:26:07;;;;;;;0.50;0.50;;;1.60;99.90;;;;;;5074257;28;20602;-81
2021/03/19 04:28:35;;;;;;;0.70;0.70;;;1.60;99.90;;;;;;5074905;28;20221;-81
2021/03/19 04:31:03;;;;;;;0.50;0.40;;;1.50;99.90;;;;;;5075217;28;20196;-81
2021/03/19 04:33:30;;;;;;;0.50;0.50;;;1.50;99.90;;;;;;5074851;28;20214;-79
2021/03/19 04:36:04;;;;;;;4.82;2.88;;;1.40;99.90;;;;;;5074023;28;20188;-81
2021/03/19 04:38:31;;;;;;;0.50;0.40;;;1.40;99.90;;;;;;5074391;28;20193;-81
2021/03/19 04:40:57;;;;;;;0.50;0.40;;;1.30;99.90;;;;;;5074229;28;20226;-82
2021/03/19 04:43:23;;;;;;;0.60;0.50;;;1.20;99.90;;;;;;5075205;28;20309;-82
2021/03/19 04:45:50;;;;;;;0.50;0.40;;;1.20;99.90;;;;;;5072122;28;20218;-80
2021/03/19 04:48:16;;;;;;;0.50;0.50;;;1.20;99.90;;;;;;5074918;28;20198;-81
2021/03/19 04:50:43;;;;;;;0.50;0.40;;;1.10;99.90;;;;;;5074262;28;20221;-81
2021/03/19 04:53:09;;;;;;;0.50;0.43;;;1.00;99.90;;;;;;5074210;28;20222;-81
2021/03/19 04:55:36;;;;;;;0.50;0.40;;;0.90;99.90;;;;;;5074304;28;20234;-81
2021/03/19 04:58:02;;;;;;;2.45;2.08;;;0.90;99.90;;;;;;5074300;28;20779;-80
2021/03/19 05:00:28;;;;;;;2.45;2.35;;;0.90;99.90;;;;;;5074789;28;20230;-82
2021/03/19 05:02:55;;;;;;;0.50;0.40;;;0.90;99.90;;;;;;5075725;28;20218;-82
2021/03/19 05:05:23;;;;;;;0.93;0.93;;;0.80;99.90;;;;;;5074357;28;20222;-82
2021/03/19 05:07:50;;;;;;;0.60;0.60;;;0.80;99.90;;;;;;5073447;28;20208;-81
2021/03/19 05:10:20;;;;;;;0.50;0.40;;;0.70;99.90;;;;;;5074663;28;20224;-81
2021/03/19 05:12:46;;;;;;;0.50;0.40;;;0.70;99.90;;;;;;5074552;28;20213;-80
2021/03/19 05:15:13;;;;;;;0.70;0.70;;;0.70;99.90;;;;;;5075177;28;20205;-82
2021/03/19 05:17:40;;;;;;;0.50;0.50;;;0.70;99.90;;;;;;5078056;28;20194;-81
2021/03/19 05:20:08;;;;;;;0.50;0.40;;;0.60;99.90;;;;;;5079728;28;20259;-80
2021/03/19 05:22:35;;;;;;;0.50;0.50;;;0.60;99.90;;;;;;5078304;28;20222;-81
2021/03/19 05:25:03;;;;;;;0.60;0.60;;;0.50;99.90;;;;;;5078874;28;20209;-80
2021/03/19 05:27:29;;;;;;;0.75;0.75;;;0.40;99.90;;;;;;5077593;28;20190;-80
2021/03/19 05:29:57;;;;;;;0.50;0.50;;;0.30;99.90;;;;;;5078435;28;20198;-79
2021/03/19 05:32:24;;;;;;;0.60;0.60;;;0.30;99.90;;;;;;5078151;28;20234;-80
2021/03/19 05:34:50;;;;;;;0.50;0.40;;;0.20;99.90;;;;;;5078846;28;20221;-80
2021/03/19 05:37:18;;;;;;;0.50;0.40;;;0.30;99.90;;;;;;5076444;28;20198;-81
2021/03/19 05:39:44;;;;;;;0.50;0.40;;;0.30;99.90;;;;;;5078501;28;20217;-80
2021/03/19 05:42:15;;;;;;;0.50;0.45;;;0.30;99.90;;;;;;5077942;28;20222;-80
2021/03/19 05:44:44;;;;;;;0.50;0.40;;;0.30;99.90;;;;;;5076448;28;20248;-78
2021/03/19 05:47:12;;;;;;;0.77;0.70;;;0.30;99.90;;;;;;5077666;28;20274;-80
2021/03/19 05:49:38;;;;;;;0.50;0.40;;;0.30;99.90;;;;;;5078094;28;20205;-80
2021/03/19 05:52:18;;;;;;;0.50;0.50;;;0.30;99.90;;;;;;5076332;28;20308;-80
2021/03/19 05:54:47;;;;;;;2.15;1.85;;;0.40;99.90;;;;;;5077959;28;20218;-80
2021/03/19 05:57:21;;;;;;;0.98;0.98;;;0.50;99.90;;;;;;5077145;28;20201;-80
2021/03/19 05:59:49;;;;;;;0.98;0.98;;;0.60;99.90;;;;;;5077624;28;20190;-77
2021/03/19 06:02:24;;;;;;;0.65;0.65;;;0.70;99.90;;;;;;5077029;28;20214;-80
2021/03/19 06:05:10;;;;;;;0.50;0.40;;;0.70;99.90;;;;;;5076684;28;20247;-79
2021/03/19 06:07:48;;;;;;;0.50;0.40;;;0.80;99.90;;;;;;5076084;28;20555;-80
2021/03/19 06:10:18;;;;;;;0.50;0.40;;;1.10;99.90;;;;;;5077580;28;20182;-80
2021/03/19 06:12:46;;;;;;;0.50;0.40;;;1.20;99.90;;;;;;5076060;28;20210;-80
2021/03/19 06:15:28;;;;;;;0.50;0.40;;;1.40;99.90;;;;;;5077435;28;20196;-80
2021/03/19 06:17:56;;;;;;;0.50;0.40;;;1.60;99.90;;;;;;5075957;28;20181;-80
2021/03/19 06:20:25;;;;;;;0.50;0.40;;;1.80;99.90;;;;;;5076911;28;20676;-80
2021/03/19 06:23:01;;;;;;;0.80;0.80;;;2.10;99.90;;;;;;5076222;28;20218;-80
2021/03/19 06:25:34;;;;;;;0.50;0.40;;;2.40;99.90;;;;;;5068519;28;20207;-80
2021/03/19 06:28:03;;;;;;;1.80;1.70;;;2.90;99.90;;;;;;5075756;28;20205;-80
2021/03/19 06:30:33;;;;;;;1.33;0.93;;;3.10;99.90;;;;;;5075673;28;20598;-79
2021/03/19 06:33:23;;;;;;;0.50;0.40;;;3.20;99.90;;;;;;5074861;28;20230;-79
2021/03/19 06:36:18;;;;;;;0.60;0.60;;;3.50;99.90;;;;;;5074418;28;20203;-78
2021/03/19 06:38:47;;;;;;;0.50;0.40;;;4.00;99.90;;;;;;5075456;28;20196;-80
2021/03/19 06:41:21;;;;;;;3.53;1.38;;;4.50;99.90;;;;;;5076111;28;20205;-79
2021/03/19 06:43:50;;;;;;;0.50;0.40;;;5.00;99.90;;;;;;5075106;28;20603;-79
2021/03/19 06:46:20;;;;;;;0.50;0.40;;;5.30;99.90;;;;;;5073631;28;20283;-80
2021/03/19 06:49:00;;;;;;;0.50;0.50;;;5.30;99.90;;;;;;5074079;28;20206;-77
2021/03/19 06:51:28;;;;;;;0.50;0.40;;;5.50;99.90;;;;;;5074830;28;20182;-79
2021/03/19 06:53:58;;;;;;;0.50;0.40;;;6.00;99.90;;;;;;5073490;28;20217;-79
2021/03/19 06:56:24;;;;;;;0.50;0.40;;;7.20;99.90;;;;;;5073852;28;20190;-79
2021/03/19 06:58:52;;;;;;;0.60;0.60;;;8.20;99.90;;;;;;5074551;28;20220;-79
2021/03/19 07:01:35;;;;;;;0.50;0.40;;;9.50;99.90;;;;;;5073656;28;20209;-80
2021/03/19 07:04:31;;;;;;;0.50;0.40;;;10.50;99.90;;;;;;5073948;28;20208;-80
2021/03/19 07:07:13;;;;;;;0.57;0.55;;;10.80;99.90;;;;;;5067188;28;20203;-79
2021/03/19 07:09:50;;;;;;;0.70;0.70;;;10.90;99.90;;;;;;5073967;28;20185;-79
2021/03/19 07:12:41;;;;;;;0.50;0.40;;;11.60;99.90;;;;;;5074324;28;20217;-78
2021/03/19 07:15:21;;;;;;;0.50;0.40;;;11.70;99.90;;;;;;5073940;28;20201;-79
2021/03/19 07:17:53;;;;;;;0.60;0.60;;;10.80;99.90;;;;;;5073116;28;20220;-76
2021/03/19 07:20:49;;;;;;;0.50;0.40;;;10.20;99.90;;;;;;5073683;28;20192;-81
2021/03/19 07:23:17;;;;;;;1.35;1.25;;;10.00;99.90;;;;;;5054260;28;20212;-79
2021/03/19 07:26:08;;;;;;;0.55;0.55;;;9.20;99.90;;;;;;5073405;28;20207;-77
2021/03/19 07:29:07;;;;;;;0.50;0.40;;;8.70;99.90;;;;;;5074361;28;20323;-79
2021/03/19 07:31:55;;;;;;;1.88;1.70;;;8.10;99.90;;;;;;5073496;28;20194;-78
2021/03/19 07:34:45;;;;;;;0.65;0.65;;;7.60;99.90;;;;;;5072727;28;20668;-78
2021/03/19 07:37:24;;;;;;;0.50;0.40;;;7.10;99.90;;;;;;5061695;28;20209;-78
2021/03/19 07:40:14;;;;;;;0.65;0.65;;;6.70;99.90;;;;;;5072273;28;20207;-79
2021/03/19 07:43:31;;;;;;;1.15;0.88;;;6.10;99.90;;;;;;5073247;28;20221;-76
2021/03/19 07:46:14;;;;;;;0.50;0.40;;;5.90;99.90;;;;;;5031004;28;20221;-79
2021/03/19 07:48:53;;;;;;;0.88;0.88;;;5.80;99.90;;;;;;5072671;28;20197;-79
2021/03/19 07:51:40;;;;;;;0.88;0.82;;;5.50;99.90;;;;;;5073174;28;20556;-80
2021/03/19 07:54:13;;;;;;;0.70;0.70;;;5.50;99.90;;;;;;5072093;28;20221;-79
2021/03/19 07:56:52;;;;;;;0.50;0.40;;;5.50;99.90;;;;;;5071960;28;20215;-79
2021/03/19 07:59:31;;;;;;;0.50;0.47;;;5.30;99.90;;;;;;5072802;28;20193;-79
2021/03/19 08:02:17;;;;;;;1.13;1.10;;;5.60;99.90;;;;;;5073185;28;20218;-79
2021/03/19 08:04:55;;;;;;;0.90;0.88;;;5.90;99.90;;;;;;5073381;28;20236;-77
2021/03/19 08:07:28;;;;;;;0.50;0.40;;;6.20;99.90;;;;;;5072495;28;20178;-78
2021/03/19 08:10:01;;;;;;;0.50;0.40;;;6.30;99.90;;;;;;5073445;28;20174;-79
2021/03/19 08:12:34;;;;;;;0.50;0.40;;;6.20;99.90;;;;;;5079261;28;20233;-79
2021/03/19 08:15:20;;;;;;;1.13;1.02;;;6.30;99.90;;;;;;5072486;28;20202;-80
2021/03/19 08:17:57;;;;;;;1.50;1.02;;;6.50;99.90;;;;;;5071559;28;20869;-75
2021/03/19 08:20:53;;;;;;;0.75;0.75;;;6.60;99.90;;;;;;5073540;28;20658;-80
2021/03/19 08:23:29;;;;;;;0.70;0.70;;;6.60;99.90;;;;;;5073641;28;20560;-80
2021/03/19 08:25:55;;;;;;;0.50;0.40;;;6.70;99.90;;;;;;5073559;28;20198;-79
2021/03/19 08:28:31;;;;;;;0.73;0.68;;;7.30;99.90;;;;;;5073865;28;20190;-79
2021/03/19 08:31:03;;;;;;;1.40;0.85;;;8.20;99.90;;;;;;5073432;28;20235;-79
2021/03/19 08:33:55;;;;;;;3.10;0.93;;;8.60;99.90;;;;;;5074189;28;20579;-79
2021/03/19 08:36:30;;;;;;;2.63;1.58;;;9.50;99.90;;;;;;5073055;28;20244;-77
2021/03/19 08:39:05;;;;;;;0.50;0.40;;;10.10;99.90;;;;;;5073546;28;20221;-79
2021/03/19 08:41:36;;;;;;;0.50;0.40;;;11.20;99.90;;;;;;5072342;28;20204;-76
2021/03/19 08:44:05;;;;;;;0.50;0.40;;;12.40;99.90;;;;;;5072555;28;20198;-77
2021/03/19 08:46:36;;;;;;;1.83;1.33;;;13.20;99.90;;;;;;5069874;28;20190;-79
2021/03/19 08:49:06;;;;;;;0.60;0.55;;;13.00;96.10;;;;;;5072799;28;20567;-79
2021/03/19 08:51:43;;;;;;;0.50;0.50;;;13.70;93.20;;;;;;5072529;28;20189;-79
2021/03/19 08:54:27;;;;;;;0.87;0.70;;;14.20;91.80;;;;;;5072075;28;20186;-80
2021/03/19 08:56:56;;;;;;;0.77;0.70;;;14.00;91.30;;;;;;5071547;28;20423;-79
2021/03/19 08:59:51;;;;;;;0.50;0.40;;;13.30;89.70;;;;;;5073211;28;20790;-80
2021/03/19 09:02:44;;;;;;;0.60;0.50;;;13.40;90.60;;;;;;5073229;28;20456;-79
2021/03/19 09:05:19;;;;;;;7.03;1.80;;;13.70;90.50;;;;;;5072856;28;20210;-81
2021/03/19 09:08:15;;;;;;;0.50;0.40;;;14.80;87.60;;;;;;5072175;28;20450;-79
2021/03/19 09:11:06;;;;;;;0.60;0.60;;;14.60;82.60;;;;;;5072148;28;20440;-78
2021/03/19 09:13:33;;;;;;;0.52;0.47;;;13.80;81.90;;;;;;5072654;28;20518;-80
2021/03/19 09:16:38;;;;;;;0.50;0.40;;;12.30;84.40;;;;;;5072086;28;20262;-80
2021/03/19 09:19:40;;;;;;;0.60;0.60;;;11.90;87.70;;;;;;5072443;28;20288;-79
2021/03/19 09:22:46;;;;;;;0.70;0.65;;;11.90;93.50;;;;;;5072204;28;20217;-79
2021/03/19 09:25:35;;;;;;;0.77;0.47;;;12.30;91.80;;;;;;5072608;28;20206;-79
2021/03/19 09:28:18;;;;;;;0.50;0.40;;;12.70;90.00;;;;;;5072104;28;20209;-79
2021/03/19 09:30:50;;;;;;;0.50;0.40;;;13.30;92.30;;;;;;5072236;28;20174;-78
2021/03/19 09:33:53;;;;;;;1.15;0.70;;;12.70;88.70;;;;;;5072762;28;20214;-79
2021/03/19 09:36:53;;;;;;;0.50;0.40;;;13.00;90.10;;;;;;5071090;28;20700;-79
2021/03/19 09:39:55;;;;;;;0.95;0.60;;;13.20;82.50;;;;;;5072275;28;20222;-79
2021/03/19 09:42:55;;;;;;;1.25;1.15;;;13.10;86.00;;;;;;5072605;28;20225;-79
2021/03/19 09:46:01;;;;;;;0.50;0.40;;;12.80;85.50;;;;;;5008421;28;20242;-79
2021/03/19 09:48:31;;;;;;;1.27;0.68;;;12.30;87.00;;;;;;5072995;28;20193;-79
2021/03/19 09:51:29;;;;;;;0.50;0.40;;;12.70;87.70;;;;;;5072089;28;20190;-79
2021/03/19 09:53:56;;;;;;;6.97;2.15;;;12.50;87.00;;;;;;5072967;28;20221;-79
2021/03/19 09:56:30;;;;;;;0.50;0.40;;;12.50;84.90;;;;;;5071600;28;20182;-79
2021/03/19 09:58:58;;;;;;;1.90;1.23;;;12.00;85.70;;;;;;5072244;28;20520;-79
2021/03/19 10:01:34;;;;;;;0.50;0.47;;;11.60;83.90;;;;;;5071883;28;20682;-79
2021/03/19 10:04:02;;;;;;;1.95;0.60;;;11.30;86.80;;;;;;5075609;28;20758;-79
2021/03/19 10:06:33;;;;;;;0.50;0.43;;;11.30;84.60;;;;;;5075561;28;20244;-79
2021/03/19 10:09:10;;;;;;;0.50;0.50;;;11.50;88.40;;;;;;5075440;28;20205;-80
2021/03/19 10:11:49;;;;;;;0.50;0.40;;;10.90;84.80;;;;;;5075314;28;20192;-78
2021/03/19 10:14:22;;;;;;;0.50;0.40;;;10.50;87.40;;;;;;5075562;28;20185;-79
2021/03/19 10:16:48;;;;;;;0.50;0.40;;;11.00;89.20;;;;;;5074509;28;20185;-77
2021/03/19 10:19:16;;;;;;;0.50;0.40;;;11.20;86.20;;;;;;5075884;28;20201;-78
2021/03/19 10:21:45;;;;;;;0.80;0.70;;;10.90;83.70;;;;;;5075256;28;20198;-78
2021/03/19 10:24:13;;;;;;;0.60;0.60;;;12.40;86.70;;;;;;5074708;28;20202;-79
2021/03/19 10:26:51;;;;;;;0.50;0.40;;;13.50;79.00;;;;;;5074772;28;20478;-78
2021/03/19 10:29:23;;;;;;;1.20;0.40;;;13.90;77.10;;;;;;5076773;28;20185;-80
2021/03/19 10:31:53;;;;;;;0.60;0.60;;;13.60;72.90;;;;;;5076555;28;20966;-80
2021/03/19 10:34:36;;;;;;;0.50;0.40;;;13.70;75.60;;;;;;5077463;28;20444;-79
2021/03/19 10:37:10;;;;;;;0.60;0.60;;;14.50;71.10;;;;;;5075963;28;20443;-79
2021/03/19 10:39:45;;;;;;;0.50;0.40;;;15.10;71.40;;;;;;5076882;28;20433;-80
2021/03/19 10:42:19;;;;;;;0.50;0.47;;;15.40;69.00;;;;;;5076888;28;20560;-80
2021/03/19 10:44:55;;;;;;;0.50;0.40;;;16.00;65.30;;;;;;5075138;28;20960;-79
2021/03/19 10:47:27;;;;;;;0.60;0.60;;;16.50;61.90;;;;;;5077004;28;20437;-80
2021/03/19 10:49:57;;;;;;;0.87;0.40;;;16.30;61.00;;;;;;5077073;28;20435;-81
2021/03/19 10:52:30;;;;;;;0.50;0.30;;;16.10;64.60;;;;;;5077126;28;20472;-80
2021/03/19 10:55:01;;;;;;;0.50;0.40;;;16.70;62.00;;;;;;5076532;28;20428;-80
2021/03/19 10:57:31;;;;;;;0.60;0.50;;;17.20;61.40;;;;;;5075147;28;20455;-78
2021/03/19 10:59:58;;;;;;;1.07;1.00;;;17.90;63.40;;;;;;5074829;28;20668;-78
2021/03/19 11:02:26;;;;;;;0.50;0.40;;;17.80;61.10;;;;;;5073725;28;20505;-78
2021/03/19 11:05:07;;;;;;;0.93;0.80;;;17.60;58.60;;;;;;5074137;28;20480;-79
2021/03/19 11:07:38;;;;;;;0.70;0.50;;;18.80;59.50;;;;;;5074592;28;20848;-77
2021/03/19 11:10:12;;;;;;;0.50;0.30;;;18.70;55.40;;;;;;5076098;28;20456;-78
2021/03/19 11:12:43;;;;;;;0.50;0.30;;;18.60;56.90;;;;;;5075317;28;20543;-76
2021/03/19 11:15:13;;;;;;;0.50;0.40;;;18.30;53.30;;;;;;5074882;28;20421;-78
2021/03/19 11:17:39;;;;;;;0.50;0.40;;;18.50;55.10;;;;;;5074684;28;20455;-78
2021/03/19 11:20:10;;;;;;;0.50;0.40;;;19.10;55.70;;;;;;5075202;28;20444;-79
2021/03/19 11:22:39;;;;;;;0.50;0.30;;;18.40;52.80;;;;;;5074684;28;20451;-79
2021/03/19 11:25:34;;;;;;;0.50;0.40;;;18.50;55.00;;;;;;5073451;28;20464;-80
2021/03/19 11:28:01;;;;;;;0.50;0.30;;;17.30;53.90;;;;;;5073511;28;20450;-79
2021/03/19 11:30:33;;;;;;;0.87;0.87;;;17.00;54.10;;;;;;5074831;28;20444;-80
2021/03/19 11:33:03;;;;;;;0.57;0.53;;;17.30;54.60;;;;;;5074232;28;20459;-79
2021/03/19 11:35:29;;;;;;;0.50;0.30;;;17.60;55.60;;;;;;5074765;28;20594;-79
2021/03/19 11:37:56;;;;;;;0.50;0.30;;;18.80;55.50;;;;;;5074302;28;20498;-79
2021/03/19 11:40:39;;;;;;;0.97;0.93;;;19.50;56.70;;;;;;5074743;28;20436;-79
2021/03/19 11:43:07;;;;;;;0.50;0.30;;;18.60;52.10;;;;;;5074635;28;20470;-79
2021/03/19 11:45:36;;;;;;;0.70;0.57;;;19.10;53.90;;;;;;5072682;28;20555;-79
2021/03/19 11:48:28;;;;;;;0.50;0.40;;;19.90;53.80;;;;;;5072196;28;20470;-78
2021/03/19 11:51:09;;;;;;;0.50;0.40;;;20.40;53.10;;;;;;5070365;28;20517;-76
2021/03/19 11:53:36;;;;;;;0.60;0.50;;;21.30;50.30;;;;;;5072461;28;20464;-76
2021/03/19 11:56:04;;;;;;;0.50;0.50;;;20.00;48.20;;;;;;5071835;28;20936;-77
2021/03/19 11:58:32;;;;;;;0.60;0.40;;;19.00;48.00;;;;;;5072683;28;20802;-78
2021/03/19 12:01:00;;;;;;;0.50;0.37;;;18.50;51.30;;;;;;5072564;28;20446;-78
2021/03/19 12:03:31;;;;;;;0.50;0.30;;;17.30;50.20;;;;;;5072647;28;20557;-78
2021/03/19 12:05:58;;;;;;;0.50;0.30;;;16.70;52.00;;;;;;5072745;28;20478;-78
2021/03/19 12:08:26;;;;;;;0.50;0.40;;;17.10;54.40;;;;;;5072414;28;20540;-79
2021/03/19 12:10:52;;;;;;;0.50;0.37;;;17.70;54.60;;;;;;5072642;28;20453;-75
2021/03/19 12:13:20;;;;;;;0.67;0.67;;;18.80;52.60;;;;;;5073130;28;20463;-78
2021/03/19 12:15:46;;;;;;;0.50;0.40;;;20.00;50.50;;;;;;5072273;28;20441;-75
2021/03/19 12:18:15;;;;;;;0.60;0.43;;;19.80;46.90;;;;;;5072660;28;20942;-79
2021/03/19 12:20:41;;;;;;;0.50;0.30;;;19.10;48.70;;;;;;5072959;28;20547;-78
2021/03/19 12:23:07;;;;;;;0.50;0.30;;;18.30;49.80;;;;;;5071856;28;20460;-78
2021/03/19 12:25:36;;;;;;;0.50;0.30;;;18.30;49.10;;;;;;5071504;28;20480;-78
2021/03/19 12:28:03;;;;;;;0.50;0.30;;;18.30;49.60;;;;;;5072916;28;20493;-78
2021/03/19 12:30:31;;;;;;;0.50;0.40;;;18.40;48.60;;;;;;5073063;28;20443;-79
2021/03/19 12:32:57;;;;;;;0.50;0.30;;;18.20;47.80;;;;;;5073500;28;20978;-78
2021/03/19 12:35:25;;;;;;;0.50;0.30;;;18.30;48.00;;;;;;5073779;28;21097;-79
2021/03/19 12:37:52;;;;;;;0.60;0.50;;;18.20;49.50;;;;;;5072557;28;20486;-79
2021/03/19 12:40:20;;;;;;;0.50;0.40;;;18.40;48.20;;;;;;5077035;28;20532;-78
2021/03/19 12:42:47;;;;;;;0.50;0.30;;;18.50;50.00;;;;;;5075621;28;20490;-76
2021/03/19 12:45:14;;;;;;;0.50;0.30;;;18.50;47.30;;;;;;5071127;28;20944;-79
2021/03/19 12:47:41;;;;;;;0.50;0.40;;;18.50;49.00;;;;;;5073433;28;20440;-79
2021/03/19 12:50:09;;;;;;;0.50;0.33;;;19.20;47.80;;;;;;5074536;28;20440;-79
2021/03/19 12:52:35;;;;;;;0.50;0.30;;;18.90;47.50;;;;;;5074219;28;20460;-79
2021/03/19 12:55:01;;;;;;;0.50;0.30;;;18.90;48.90;;;;;;5073430;28;20443;-80
2021/03/19 12:57:28;;;;;;;0.50;0.30;;;19.80;50.20;;;;;;5072870;28;20453;-78
2021/03/19 12:59:54;;;;;;;0.50;0.40;;;20.10;47.10;;;;;;5074564;28;20886;-80
2021/03/19 13:02:20;;;;;;;0.50;0.40;;;20.60;46.20;;;;;;5074117;28;20456;-80
2021/03/19 13:04:47;;;;;;;0.50;0.40;;;19.80;45.10;;;;;;5068388;28;20516;-79
2021/03/19 13:07:13;;;;;;;0.50;0.30;;;19.30;45.00;;;;;;5072157;28;20485;-79
2021/03/19 13:09:40;;;;;;;0.50;0.40;;;19.30;47.70;;;;;;5073145;28;20440;-79
2021/03/19 13:12:07;;;;;;;0.50;0.40;;;19.60;45.90;;;;;;5073258;28;20467;-80
2021/03/19 13:14:34;;;;;;;0.50;0.40;;;20.00;46.80;;;;;;5073856;28;20444;-80
2021/03/19 13:17:01;;;;;;;0.50;0.30;;;19.60;45.00;;;;;;5064840;28;20456;-79
2021/03/19 13:19:28;;;;;;;0.50;0.30;;;18.90;45.00;;;;;;5062152;28;20444;-79
2021/03/19 13:21:56;;;;;;;0.50;0.40;;;16.90;46.20;;;;;;5068866;28;20485;-79
2021/03/19 13:24:22;;;;;;;0.50;0.40;;;16.10;47.80;;;;;;5072308;28;20435;-79
2021/03/19 13:26:49;;;;;;;0.50;0.30;;;15.80;48.90;;;;;;5072314;28;20490;-78